Time;durP1;ratioP1;P1;durP2;ratioP2;P2;SDS_P1;SDS_P2;PMS_P1;PMS_P2;Temp;Humidity;BMP_temperature;BMP_pressure;BME280_temperature;BME280_humidity;BME280_pressure;Samples;Min_cycle;Max_cycle;Signal;HPM_P1;HPM_P2
2023/10/27 00:00:54;;;;;;;;;31.75;27.75;;;;;10.50;96.08;99213.84;5026578;28;11070;-67
2023/10/27 00:03:20;;;;;;;;;26.25;21.75;;;;;10.48;95.62;99224.81;4991694;28;10882;-67
2023/10/27 00:05:47;;;;;;;;;27.00;22.50;;;;;10.48;95.99;99224.81;5026663;28;10921;-67
2023/10/27 00:08:13;;;;;;;;;38.00;32.25;;;;;10.49;96.05;99218.41;5023969;28;10859;-67
2023/10/27 00:10:40;;;;;;;;;34.25;30.50;;;;;10.49;95.65;99226.47;5026615;28;11630;-67
2023/10/27 00:13:07;;;;;;;;;30.25;28.25;;;;;10.51;95.90;99229.72;5002434;28;10958;-67
2023/10/27 00:15:33;;;;;;;;;31.75;26.00;;;;;10.52;95.73;99227.84;5001042;28;10868;-67
2023/10/27 00:18:00;;;;;;;;;29.75;24.50;;;;;10.57;95.81;99217.19;5000895;28;10772;-67
2023/10/27 00:20:27;;;;;;;;;31.75;25.50;;;;;10.59;95.57;99226.69;5024269;28;10657;-67
2023/10/27 00:22:53;;;;;;;;;32.25;27.00;;;;;10.61;95.50;99219.22;5022431;28;10649;-67
2023/10/27 00:25:20;;;;;;;;;29.25;23.50;;;;;10.57;95.13;99222.59;5022901;28;11554;-67
2023/10/27 00:27:46;;;;;;;;;31.00;29.00;;;;;10.57;95.49;99217.19;5022350;28;10700;-67
2023/10/27 00:30:13;;;;;;;;;36.50;31.00;;;;;10.55;95.21;99212.06;5018927;28;10796;-67
2023/10/27 00:32:40;;;;;;;;;29.75;28.50;;;;;10.54;95.12;99213.13;5009927;28;11084;-69
2023/10/27 00:35:07;;;;;;;;;31.00;26.00;;;;;10.55;95.33;99206.69;5024767;28;10808;-67
2023/10/27 00:37:34;;;;;;;;;29.25;25.50;;;;;10.57;95.51;99207.28;5012030;28;11634;-67
2023/10/27 00:40:02;;;;;;;;;37.00;34.50;;;;;10.55;95.59;99201.31;5006574;28;10835;-67
2023/10/27 00:42:28;;;;;;;;;33.75;30.50;;;;;10.57;95.38;99203.75;4994941;28;10925;-67
2023/10/27 00:44:56;;;;;;;;;40.00;30.50;;;;;10.58;95.59;99205.41;5019297;28;10962;-67
2023/10/27 00:47:26;;;;;;;;;30.25;27.50;;;;;10.57;95.29;99201.91;5006629;28;10893;-67
2023/10/27 00:49:54;;;;;;;;;29.25;24.75;;;;;10.60;95.44;99205.97;5009783;28;11903;-68
2023/10/27 00:52:24;;;;;;;;;33.50;28.25;;;;;10.60;95.19;99200.59;5013312;28;11020;-67
2023/10/27 00:54:53;;;;;;;;;32.25;27.25;;;;;10.61;95.46;99204.91;5021488;28;11049;-67
2023/10/27 00:57:26;;;;;;;;;26.50;26.25;;;;;10.62;95.55;99199.31;5002248;28;10889;-67
2023/10/27 00:59:53;;;;;;;;;31.75;29.25;;;;;10.62;95.60;99188.56;5028827;28;10759;-67
2023/10/27 01:02:21;;;;;;;;;32.75;31.00;;;;;10.61;95.09;99178.00;5001623;28;10754;-67
2023/10/27 01:04:48;;;;;;;;;31.75;25.50;;;;;10.58;95.41;99186.56;4997907;28;10885;-67
2023/10/27 01:07:15;;;;;;;;;37.00;31.75;;;;;10.56;95.70;99178.72;5016447;28;10772;-67
2023/10/27 01:09:42;;;;;;;;;47.25;35.00;;;;;10.53;96.00;99191.81;5002490;28;11126;-67
2023/10/27 01:12:09;;;;;;;;;37.50;31.75;;;;;10.51;96.31;99183.19;5002383;28;11010;-67
2023/10/27 01:14:36;;;;;;;;;31.50;30.50;;;;;10.51;96.14;99175.09;5020015;28;11089;-67
2023/10/27 01:17:03;;;;;;;;;36.00;30.50;;;;;10.49;96.26;99177.19;5020369;28;11713;-67
2023/10/27 01:19:29;;;;;;;;;39.75;35.25;;;;;10.46;96.15;99183.06;5022183;28;11701;-67
2023/10/27 01:21:56;;;;;;;;;33.50;29.00;;;;;10.46;96.92;99183.06;5002271;28;11016;-67
2023/10/27 01:24:23;;;;;;;;;30.75;28.75;;;;;10.46;97.01;99172.31;5018531;28;10769;-67
2023/10/27 01:26:50;;;;;;;;;25.00;24.50;;;;;10.47;97.15;99169.38;5016967;28;10992;-67
2023/10/27 01:29:16;;;;;;;;;27.75;26.25;;;;;10.49;97.39;99172.66;5001819;28;11890;-67
2023/10/27 01:31:43;;;;;;;;;23.75;21.75;;;;;10.53;97.24;99167.59;5018980;28;10748;-67
2023/10/27 01:34:11;;;;;;;;;35.50;30.50;;;;;10.55;97.10;99173.59;5004195;28;11050;-67
2023/10/27 01:36:37;;;;;;;;;33.00;29.25;;;;;10.55;97.12;99168.19;5014893;28;11117;-67
2023/10/27 01:39:05;;;;;;;;;32.50;29.75;;;;;10.52;97.17;99166.78;5003004;28;11023;-67
2023/10/27 01:41:31;;;;;;;;;29.75;28.50;;;;;10.52;97.05;99165.97;5001744;28;11114;-67
2023/10/27 01:43:58;;;;;;;;;27.25;25.25;;;;;10.52;96.94;99169.47;4999546;28;11067;-67
2023/10/27 01:46:25;;;;;;;;;35.25;26.50;;;;;10.52;97.18;99161.41;5009638;28;10833;-67
2023/10/27 01:48:51;;;;;;;;;40.25;34.25;;;;;10.50;97.40;99166.22;5026732;28;10944;-67
2023/10/27 01:51:18;;;;;;;;;36.50;31.00;;;;;10.48;97.20;99160.25;5013310;28;11016;-67
2023/10/27 01:53:45;;;;;;;;;32.25;29.25;;;;;10.48;97.57;99157.56;5009583;28;10928;-67
2023/10/27 01:56:11;;;;;;;;;28.75;28.25;;;;;10.49;97.37;99161.06;5016203;28;11181;-68
2023/10/27 01:58:43;;;;;;;;;30.50;25.75;;;;;10.49;97.56;99158.38;5007730;28;11558;-68
2023/10/27 02:01:12;;;;;;;;;26.75;25.25;;;;;10.50;97.68;99151.97;5002769;28;10697;-67
2023/10/27 02:03:39;;;;;;;;;28.25;24.75;;;;;10.51;97.59;99150.91;5020781;28;10885;-68
2023/10/27 02:06:05;;;;;;;;;31.75;25.00;;;;;10.50;97.59;99157.34;5000706;28;10857;-68
2023/10/27 02:08:35;;;;;;;;;30.75;26.50;;;;;10.48;97.27;99151.34;5005873;28;10926;-67
2023/10/27 02:11:02;;;;;;;;;28.25;23.00;;;;;10.46;97.68;99150.78;5003479;28;10925;-68
2023/10/27 02:13:29;;;;;;;;;32.25;25.50;;;;;10.43;97.92;99145.88;5001399;28;10951;-68
2023/10/27 02:15:56;;;;;;;;;25.00;22.00;;;;;10.40;98.02;99139.06;5014997;28;10720;-68
2023/10/27 02:18:22;;;;;;;;;30.00;28.50;;;;;10.43;98.32;99145.88;5013065;28;10747;-67
2023/10/27 02:20:49;;;;;;;;;41.50;31.75;;;;;10.40;97.93;99139.06;5005670;28;11165;-67
2023/10/27 02:23:16;;;;;;;;;36.25;32.25;;;;;10.37;98.21;99140.38;5002606;28;11030;-68
2023/10/27 02:25:42;;;;;;;;;38.75;33.75;;;;;10.38;98.30;99143.88;4998270;28;11208;-68
2023/10/27 02:28:09;;;;;;;;;32.25;30.00;;;;;10.40;98.52;99144.47;5017229;28;11199;-68
2023/10/27 02:30:35;;;;;;;;;32.50;30.50;;;;;10.40;98.55;99144.47;5021624;28;10869;-68
2023/10/27 02:33:02;;;;;;;;;36.50;31.50;;;;;10.42;98.39;99145.06;5004670;28;10922;-68
2023/10/27 02:35:29;;;;;;;;;29.00;26.00;;;;;10.42;98.97;99139.69;5001096;28;11007;-68
2023/10/27 02:37:56;;;;;;;;;35.50;30.75;;;;;10.43;98.62;99138.63;5014673;28;11074;-68
2023/10/27 02:40:22;;;;;;;;;31.50;29.75;;;;;10.45;98.58;99135.69;5009377;28;10880;-68
2023/10/27 02:42:50;;;;;;;;;35.75;32.75;;;;;10.45;98.45;99141.06;5019203;28;10984;-68
2023/10/27 02:45:16;;;;;;;;;31.00;31.00;;;;;10.44;98.61;99137.56;5002393;28;10934;-68
2023/10/27 02:47:43;;;;;;;;;33.00;30.75;;;;;10.43;98.74;99137.81;5001180;28;11105;-68
2023/10/27 02:50:09;;;;;;;;;37.75;31.50;;;;;10.42;98.74;99139.69;5001302;28;11102;-68
2023/10/27 02:52:36;;;;;;;;;38.00;31.25;;;;;10.44;98.77;99142.13;5023932;28;11219;-68
2023/10/27 02:55:03;;;;;;;;;32.50;29.25;;;;;10.44;98.64;99142.94;5017831;28;10959;-68
2023/10/27 02:57:29;;;;;;;;;29.50;28.50;;;;;10.44;98.50;99137.56;5027622;28;10831;-68
2023/10/27 02:59:57;;;;;;;;;36.50;31.00;;;;;10.43;99.00;99145.88;5003867;28;10998;-68
2023/10/27 03:02:23;;;;;;;;;36.50;29.50;;;;;10.43;99.00;99132.41;5026299;28;10835;-68
2023/10/27 03:04:51;;;;;;;;;33.75;30.00;;;;;10.42;98.80;99138.84;5018471;28;10850;-68
2023/10/27 03:07:18;;;;;;;;;41.75;36.00;;;;;10.39;98.79;99135.56;5028258;28;11044;-68
2023/10/27 03:09:45;;;;;;;;;33.00;30.75;;;;;10.37;99.16;99129.63;5005717;28;10915;-68
2023/10/27 03:12:12;;;;;;;;;40.00;36.75;;;;;10.39;99.59;99132.88;5027587;28;10941;-67
2023/10/27 03:14:39;;;;;;;;;33.00;26.75;;;;;10.42;99.36;99136.16;4987371;28;11128;-67
2023/10/27 03:17:05;;;;;;;;;38.25;29.75;;;;;10.40;99.18;99131.81;4992835;28;10767;-68
2023/10/27 03:19:31;;;;;;;;;32.00;29.75;;;;;10.38;99.39;99131.25;4998300;28;10876;-68
2023/10/27 03:22:00;;;;;;;;;35.25;30.50;;;;;10.39;99.54;99135.56;5009074;28;11685;-67
2023/10/27 03:24:26;;;;;;;;;28.25;26.50;;;;;10.43;99.47;99129.72;5018209;28;11070;-67
2023/10/27 03:26:53;;;;;;;;;30.50;26.25;;;;;10.42;99.44;99125.41;5001263;28;10920;-66
2023/10/27 03:29:20;;;;;;;;;29.00;26.75;;;;;10.43;99.51;99127.03;5009152;28;11118;-67
2023/10/27 03:31:46;;;;;;;;;34.25;28.25;;;;;10.40;99.49;99131.81;5019512;28;10844;-67
2023/10/27 03:34:13;;;;;;;;;40.25;29.25;;;;;10.40;99.86;99126.44;4988217;28;10927;-68
2023/10/27 03:36:40;;;;;;;;;38.25;32.00;;;;;10.33;99.29;99116.84;5007920;28;10954;-67
2023/10/27 03:39:08;;;;;;;;;34.75;29.00;;;;;10.34;99.94;99129.28;5022354;28;11193;-67
2023/10/27 03:41:35;;;;;;;;;35.50;29.00;;;;;10.36;100.00;99119.91;5007533;28;10685;-67
2023/10/27 03:44:01;;;;;;;;;34.25;33.75;;;;;10.35;99.94;99126.34;5022189;28;10840;-67
2023/10/27 03:46:29;;;;;;;;;36.75;30.50;;;;;10.38;100.00;99125.06;4988263;28;11659;-67
2023/10/27 03:48:58;;;;;;;;;34.25;30.75;;;;;10.38;100.00;99120.50;4985276;28;10909;-67
2023/10/27 03:51:25;;;;;;;;;34.00;31.25;;;;;10.40;100.00;99118.38;4983121;28;11570;-67
2023/10/27 03:53:54;;;;;;;;;31.50;27.25;;;;;10.42;100.00;99123.53;5020731;28;10933;-67
2023/10/27 03:56:20;;;;;;;;;28.00;24.00;;;;;10.43;100.00;99117.09;5029092;28;10688;-67
2023/10/27 03:58:47;;;;;;;;;26.50;22.00;;;;;10.43;100.00;99117.09;5022584;28;10762;-67
2023/10/27 04:01:15;;;;;;;;;27.00;23.50;;;;;10.42;100.00;99120.84;5023588;28;10581;-67
2023/10/27 04:03:41;;;;;;;;;23.00;19.75;;;;;10.45;100.00;99125.75;5001517;28;10706;-67
2023/10/27 04:06:08;;;;;;;;;28.50;26.25;;;;;10.37;100.00;99121.56;5013067;28;10661;-67
2023/10/27 04:08:35;;;;;;;;;30.00;27.75;;;;;10.39;100.00;99114.06;5005078;22;1045543;-66
2023/10/27 04:11:01;;;;;;;;;22.50;21.75;;;;;10.44;100.00;99117.91;5031006;28;8823;-67
2023/10/27 04:13:28;;;;;;;;;20.50;19.50;;;;;10.47;100.00;99120.13;5015788;28;11319;-67
2023/10/27 04:15:54;;;;;;;;;18.75;16.50;;;;;10.47;100.00;99120.13;5013535;28;11113;-69
2023/10/27 04:18:21;;;;;;;;;24.25;19.00;;;;;10.49;100.00;99112.63;4992452;28;10562;-67
2023/10/27 04:20:47;;;;;;;;;20.25;20.25;;;;;10.49;100.00;99118.00;4998329;28;10628;-68
2023/10/27 04:23:14;;;;;;;;;19.50;17.00;;;;;10.49;100.00;99112.63;4995772;28;10555;-68
2023/10/27 04:25:41;;;;;;;;;19.75;18.25;;;;;10.47;100.00;99125.50;4997428;28;10589;-67
2023/10/27 04:28:07;;;;;;;;;21.50;19.25;;;;;10.49;100.00;99115.31;4989805;28;10715;-68
2023/10/27 04:30:36;;;;;;;;;15.50;14.75;;;;;10.54;100.00;99123.53;5001582;28;10740;-68
2023/10/27 04:33:04;;;;;;;;;19.00;17.25;;;;;10.55;100.00;99119.78;4993172;28;10462;-68
2023/10/27 04:35:32;;;;;;;;;16.25;14.50;;;;;10.55;100.00;99117.91;4991537;28;11046;-67
2023/10/27 04:37:59;;;;;;;;;17.00;14.00;;;;;10.58;100.00;99124.69;4991379;28;10479;-67
2023/10/27 04:40:28;;;;;;;;;17.00;12.25;;;;;10.57;100.00;99120.34;5008189;28;10896;-67
2023/10/27 04:42:57;;;;;;;;;14.25;11.00;;;;;10.56;100.00;99116.84;5017474;28;10536;-67
2023/10/27 04:45:24;;;;;;;;;19.00;17.50;;;;;10.55;100.00;99117.09;4995386;28;10141;-68
2023/10/27 04:47:51;;;;;;;;;24.25;20.00;;;;;10.51;100.00;99122.13;4968185;28;10315;-67
2023/10/27 04:50:17;;;;;;;;;17.00;16.00;;;;;10.52;100.00;99117.56;4994327;28;10734;-68
2023/10/27 04:52:45;;;;;;;;;17.75;12.50;;;;;10.52;100.00;99117.56;4994045;28;10407;-67
2023/10/27 04:55:11;;;;;;;;;16.50;14.50;;;;;10.53;100.00;99116.50;4999528;28;10412;-68
2023/10/27 04:57:39;;;;;;;;;17.00;13.50;;;;;10.55;100.00;99106.31;4982387;28;10323;-67
2023/10/27 05:00:08;;;;;;;;;15.50;12.50;;;;;10.55;100.00;99111.69;5003496;28;10426;-67
2023/10/27 05:02:34;;;;;;;;;18.75;16.25;;;;;10.56;100.00;99116.03;4972082;28;11099;-66
2023/10/27 05:05:01;;;;;;;;;18.50;16.00;;;;;10.56;100.00;99116.84;4995118;28;10239;-68
2023/10/27 05:07:28;;;;;;;;;21.75;15.50;;;;;10.56;100.00;99110.66;4992305;28;10430;-67
2023/10/27 05:09:54;;;;;;;;;13.50;12.00;;;;;10.57;100.00;99117.66;4997897;28;10491;-67
2023/10/27 05:12:21;;;;;;;;;14.75;14.50;;;;;10.56;100.00;99114.16;4973791;28;10427;-68
2023/10/27 05:14:47;;;;;;;;;11.75;11.75;;;;;10.59;100.00;99115.56;4991068;28;10315;-67
2023/10/27 05:17:14;;;;;;;;;15.75;14.25;;;;;10.60;100.00;99109.13;5002574;28;10169;-67
2023/10/27 05:19:40;;;;;;;;;13.25;13.00;;;;;10.59;100.00;99108.31;4992200;28;10400;-68
2023/10/27 05:22:07;;;;;;;;;13.00;12.50;;;;;10.60;100.00;99107.25;5005408;28;10309;-67
2023/10/27 05:24:34;;;;;;;;;12.50;11.75;;;;;10.59;100.00;99105.59;5007515;28;10316;-67
2023/10/27 05:27:01;;;;;;;;;11.75;11.75;;;;;10.61;100.00;99108.91;4991040;28;10302;-67
2023/10/27 05:29:27;;;;;;;;;10.75;10.50;;;;;10.61;100.00;99114.28;4985565;28;11084;-67
2023/10/27 05:31:54;;;;;;;;;18.75;15.00;;;;;10.62;100.00;99107.84;4979456;28;10110;-68
2023/10/27 05:34:20;;;;;;;;;13.75;12.25;;;;;10.62;100.00;99113.22;5000349;28;10293;-67
2023/10/27 05:36:47;;;;;;;;;13.50;11.00;;;;;10.63;100.00;99114.84;4990066;28;10365;-67
2023/10/27 05:39:16;;;;;;;;;12.00;12.00;;;;;10.64;100.00;99110.28;4990960;28;10245;-67
2023/10/27 05:41:46;;;;;;;;;11.25;10.50;;;;;10.67;100.00;99109.81;4996440;28;10116;-67
2023/10/27 05:44:15;;;;;;;;;13.25;12.00;;;;;10.69;100.00;99109.56;4997481;28;10298;-67
2023/10/27 05:46:42;;;;;;;;;9.00;8.00;;;;;10.68;100.00;99111.44;5000755;28;10222;-67
2023/10/27 05:49:08;;;;;;;;;12.25;10.75;;;;;10.65;100.00;99106.53;4973135;28;10153;-68
2023/10/27 05:51:35;;;;;;;;;15.25;10.25;;;;;10.67;100.00;99103.63;4991565;28;10186;-67
2023/10/27 05:54:03;;;;;;;;;12.00;9.25;;;;;10.67;100.00;99106.31;4993685;28;10149;-67
2023/10/27 05:56:29;;;;;;;;;12.75;9.75;;;;;10.69;100.00;99105.00;4995337;28;10828;-67
2023/10/27 05:58:56;;;;;;;;;14.00;14.00;;;;;10.69;100.00;99106.88;4991622;28;10487;-69
2023/10/27 06:01:23;;;;;;;;;15.00;13.50;;;;;10.63;100.00;99104.09;4995226;28;10345;-68
2023/10/27 06:03:49;;;;;;;;;11.50;11.50;;;;;10.63;100.00;99104.09;4989656;28;10356;-68
2023/10/27 06:06:16;;;;;;;;;9.00;9.00;;;;;10.67;100.00;99101.75;4972669;28;11044;-68
2023/10/27 06:08:44;;;;;;;;;9.25;9.25;;;;;10.68;100.00;99103.38;5001577;28;11307;-69
2023/10/27 06:11:11;;;;;;;;;12.25;10.75;;;;;10.70;100.00;99108.53;4973652;28;10224;-69
2023/10/27 06:13:38;;;;;;;;;7.25;7.25;;;;;10.71;100.00;99110.97;4967473;28;10384;-69
2023/10/27 06:16:05;;;;;;;;;11.75;9.50;;;;;10.71;100.00;99104.78;4991116;28;10271;-68
2023/10/27 06:18:32;;;;;;;;;13.00;9.50;;;;;10.72;100.00;99117.97;4982326;28;10981;-68
2023/10/27 06:20:59;;;;;;;;;17.50;16.00;;;;;10.70;100.00;99105.84;4992543;28;10168;-69
2023/10/27 06:23:27;;;;;;;;;14.75;12.75;;;;;10.71;100.00;99113.66;4997289;28;10457;-69
2023/10/27 06:25:57;;;;;;;;;13.75;11.75;;;;;10.72;100.00;99117.97;4973920;28;10311;-69
2023/10/27 06:28:23;;;;;;;;;9.25;8.00;;;;;10.69;100.00;99112.25;4987827;28;10242;-69
2023/10/27 06:30:50;;;;;;;;;8.25;6.50;;;;;10.69;100.00;99107.69;4977464;28;10263;-69
2023/10/27 06:33:16;;;;;;;;;8.50;8.00;;;;;10.70;100.00;99111.22;4976584;28;10263;-70
2023/10/27 06:35:43;;;;;;;;;4.00;4.00;;;;;10.72;100.00;99112.59;4979885;28;10154;-69
2023/10/27 06:38:10;;;;;;;;;6.50;6.50;;;;;10.71;100.00;99112.84;4992622;28;10011;-70
2023/10/27 06:40:36;;;;;;;;;6.50;6.00;;;;;10.71;100.00;99110.16;4997106;28;10145;-70
2023/10/27 06:43:03;;;;;;;;;8.00;8.00;;;;;10.70;100.00;99109.34;4991221;28;10068;-70
2023/10/27 06:45:30;;;;;;;;;8.25;7.50;;;;;10.71;100.00;99105.59;4973735;28;10242;-70
2023/10/27 06:47:57;;;;;;;;;10.75;8.50;;;;;10.71;100.00;99105.59;4998764;28;10306;-70
2023/10/27 06:50:23;;;;;;;;;8.25;8.25;;;;;10.73;100.00;99108.03;4992292;28;10235;-69
2023/10/27 06:52:50;;;;;;;;;6.50;6.25;;;;;10.74;100.00;99113.19;4975032;28;10224;-70
2023/10/27 06:55:16;;;;;;;;;9.25;9.25;;;;;10.76;100.00;99103.00;4972567;28;10096;-69
2023/10/27 06:57:43;;;;;;;;;6.00;6.00;;;;;10.77;100.00;99109.19;4991246;28;10141;-70
2023/10/27 07:00:11;;;;;;;;;6.25;6.00;;;;;10.76;100.00;99108.38;4995486;28;10076;-69
2023/10/27 07:02:37;;;;;;;;;7.50;6.00;;;;;10.78;100.00;99110.84;5007231;28;10110;-70
2023/10/27 07:05:21;;;;;;;;;10.00;7.00;;;;;10.78;100.00;99117.03;4990659;28;10094;-70
2023/10/27 07:07:48;;;;;;;;;9.50;6.00;;;;;10.78;100.00;99111.66;4964111;28;10155;-70
2023/10/27 07:10:15;;;;;;;;;6.25;6.25;;;;;10.77;100.00;99117.25;4992457;28;10125;-69
2023/10/27 07:12:43;;;;;;;;;7.75;7.00;;;;;10.79;100.00;99115.97;4984773;28;10053;-69
2023/10/27 07:15:12;;;;;;;;;8.25;8.25;;;;;10.82;100.00;99120.91;4985103;28;10173;-69
2023/10/27 07:17:42;;;;;;;;;7.00;6.50;;;;;10.82;100.00;99117.41;4993474;28;10016;-71
2023/10/27 07:20:09;;;;;;;;;6.25;6.00;;;;;10.82;100.00;99117.41;4991114;28;10002;-68
2023/10/27 07:22:37;;;;;;;;;15.75;8.25;;;;;10.83;100.00;99119.84;4978199;28;10143;-68
2023/10/27 07:25:04;;;;;;;;;10.00;7.50;;;;;10.84;100.00;99120.66;4992315;28;10794;-68
2023/10/27 07:27:33;;;;;;;;;9.00;7.50;;;;;10.85;100.00;99127.66;5003626;28;10204;-67
2023/10/27 07:29:59;;;;;;;;;11.75;6.50;;;;;10.85;100.00;99131.16;4988773;28;10178;-68
2023/10/27 07:32:26;;;;;;;;;7.00;7.00;;;;;10.86;100.00;99140.09;4986444;28;10101;-68
2023/10/27 07:34:52;;;;;;;;;7.00;7.00;;;;;10.87;100.00;99125.56;4992221;28;10262;-67
2023/10/27 07:37:20;;;;;;;;;6.50;3.75;;;;;10.90;100.00;99133.16;4992785;28;9985;-69
2023/10/27 07:39:47;;;;;;;;;3.75;3.50;;;;;10.94;100.00;99136.19;4984079;28;10735;-69
2023/10/27 07:42:14;;;;;;;;;5.75;5.75;;;;;10.94;100.00;99130.78;4981126;28;9893;-69
2023/10/27 07:44:40;;;;;;;;;7.25;7.25;;;;;10.94;100.00;99141.56;4974434;28;9993;-69
2023/10/27 07:47:07;;;;;;;;;8.25;8.25;;;;;10.93;100.00;99139.94;5010069;28;10379;-69
2023/10/27 07:49:33;;;;;;;;;7.50;7.50;;;;;10.94;100.00;99134.31;4999295;28;9894;-68
2023/10/27 07:52:03;;;;;;;;;6.00;6.00;;;;;10.95;100.00;99144.03;5013883;28;10092;-68
2023/10/27 07:54:29;;;;;;;;;7.00;6.50;;;;;10.95;100.00;99140.53;4976166;28;10135;-68
2023/10/27 07:56:56;;;;;;;;;9.25;8.25;;;;;10.99;100.00;99139.00;4993832;28;10084;-69
2023/10/27 07:59:22;;;;;;;;;7.25;5.75;;;;;10.99;100.00;99141.69;4994193;28;10080;-69
2023/10/27 08:01:49;;;;;;;;;7.75;6.75;;;;;11.01;100.00;99134.16;4993847;28;9962;-69
2023/10/27 08:04:15;;;;;;;;;8.25;8.25;;;;;11.00;100.00;99137.94;4972895;28;9805;-69
2023/10/27 08:06:42;;;;;;;;;6.25;4.00;;;;;10.99;100.00;99145.19;5002782;28;10035;-68
2023/10/27 08:09:08;;;;;;;;;5.25;5.25;;;;;11.01;100.00;99139.56;4996251;28;9932;-68
2023/10/27 08:11:35;;;;;;;;;7.00;6.00;;;;;11.01;100.00;99142.25;4992659;28;9842;-69
2023/10/27 08:14:04;;;;;;;;;6.00;6.00;;;;;11.02;100.00;99135.81;4996881;28;10603;-69
2023/10/27 08:16:31;;;;;;;;;7.50;7.00;;;;;11.00;100.00;99149.50;4994641;28;9972;-69
2023/10/27 08:18:58;;;;;;;;;6.00;6.00;;;;;10.99;100.00;99137.13;4970294;28;10972;-69
2023/10/27 08:21:25;;;;;;;;;3.00;3.00;;;;;10.98;100.00;99135.50;4995603;28;9961;-69
2023/10/27 08:23:52;;;;;;;;;7.00;5.50;;;;;11.00;100.00;99144.13;4992443;28;9746;-69
2023/10/27 08:26:19;;;;;;;;;7.50;6.50;;;;;11.01;100.00;99143.06;5002261;28;10048;-69
2023/10/27 08:28:45;;;;;;;;;6.00;6.00;;;;;11.03;100.00;99145.53;4981012;28;10030;-69
2023/10/27 08:31:13;;;;;;;;;4.00;4.00;;;;;11.05;100.00;99146.09;5001544;28;9849;-70
2023/10/27 08:33:41;;;;;;;;;6.50;6.00;;;;;11.05;100.00;99144.22;4994036;28;9776;-69
2023/10/27 08:36:07;;;;;;;;;4.50;4.50;;;;;11.06;100.00;99151.25;4988980;28;9764;-68
2023/10/27 08:38:34;;;;;;;;;4.00;4.00;;;;;11.05;100.00;99138.84;5000247;28;9917;-67
2023/10/27 08:41:01;;;;;;;;;5.75;3.50;;;;;11.06;100.00;99153.97;4997043;28;9750;-68
2023/10/27 08:43:28;;;;;;;;;6.00;6.00;;;;;11.05;100.00;99146.09;4994053;28;9826;-68
2023/10/27 08:45:55;;;;;;;;;6.75;4.50;;;;;11.07;100.00;99149.38;5007081;28;9931;-70
2023/10/27 08:48:23;;;;;;;;;3.00;3.00;;;;;11.10;100.00;99147.03;4990698;28;11873;-69
2023/10/27 08:50:51;;;;;;;;;4.50;4.50;;;;;11.12;100.00;99146.78;4995424;28;9886;-69
2023/10/27 08:53:17;;;;;;;;;7.00;4.00;;;;;11.11;100.00;99147.84;4959977;28;9780;-69
2023/10/27 08:55:44;;;;;;;;;4.50;3.75;;;;;11.12;100.00;99149.47;5001024;28;10182;-69
2023/10/27 08:58:10;;;;;;;;;3.00;3.00;;;;;11.12;100.00;99152.19;4973875;28;10025;-69
2023/10/27 09:00:37;;;;;;;;;6.25;5.50;;;;;11.13;100.00;99151.09;4992724;28;9884;-68
2023/10/27 09:03:15;;;;;;;;;3.25;3.25;;;;;11.13;100.00;99156.50;4998645;28;9853;-68
2023/10/27 09:05:42;;;;;;;;;2.50;2.50;;;;;11.15;100.00;99154.41;4986315;28;9746;-69
2023/10/27 09:08:09;;;;;;;;;3.00;3.00;;;;;11.18;100.00;99153.94;4983546;28;9690;-69
2023/10/27 09:10:36;;;;;;;;;3.00;3.00;;;;;11.18;100.00;99164.69;4985759;28;9765;-68
2023/10/27 09:13:04;;;;;;;;;10.00;8.00;;;;;11.18;100.00;99158.47;4993030;28;9666;-69
2023/10/27 09:15:43;;;;;;;;;3.75;3.75;;;;;11.21;100.00;99164.19;4971459;28;9900;-69
2023/10/27 09:18:10;;;;;;;;;4.00;4.00;;;;;11.22;100.00;99165.00;5001300;28;10492;-69
2023/10/27 09:20:50;;;;;;;;;5.00;3.25;;;;;11.23;100.00;99164.78;5004686;28;9761;-69
2023/10/27 09:23:19;;;;;;;;;2.00;2.00;;;;;11.26;100.00;99168.84;5010411;28;10589;-69
2023/10/27 09:25:46;;;;;;;;;4.00;2.50;;;;;11.27;100.00;99163.25;5002494;28;9701;-69
2023/10/27 09:28:13;;;;;;;;;3.75;3.50;;;;;11.29;100.00;99169.19;4988019;28;9600;-70
2023/10/27 09:30:42;;;;;;;;;3.50;2.25;;;;;11.30;100.00;99165.47;4990571;28;10173;-69
2023/10/27 09:33:23;;;;;;;;;2.00;2.00;;;;;11.31;100.00;99169.81;4997251;28;10459;-68
2023/10/27 09:35:51;;;;;;;;;2.00;2.00;;;;;11.31;100.00;99167.09;4989458;28;9750;-69
2023/10/27 09:38:20;;;;;;;;;4.00;3.25;;;;;11.30;100.00;99162.78;4991707;28;9822;-69
2023/10/27 09:40:47;;;;;;;;;6.75;3.75;;;;;11.31;100.00;99169.81;4997121;28;9580;-68
2023/10/27 09:43:23;;;;;;;;;2.75;2.75;;;;;11.34;100.00;99173.88;4980204;28;9614;-69
2023/10/27 09:46:00;;;;;;;;;3.00;3.00;;;;;11.33;100.00;99169.53;5011097;28;9784;-69
2023/10/27 09:48:29;;;;;;;;;1.50;1.50;;;;;11.36;100.00;99171.75;4997065;28;9783;-68
2023/10/27 09:51:06;;;;;;;;;3.00;3.00;;;;;11.39;100.00;99177.50;4988221;28;9654;-69
2023/10/27 09:53:33;;;;;;;;;1.00;1.00;;;;;11.38;100.00;99175.03;4994842;28;9685;-68
2023/10/27 09:56:01;;;;;;;;;2.00;2.00;;;;;11.41;100.00;99176.44;4991137;28;9524;-68
2023/10/27 09:58:31;;;;;;;;;1.25;1.25;;;;;11.45;100.00;99178.41;4998021;28;9746;-69
2023/10/27 10:01:00;;;;;;;;;3.75;2.00;;;;;11.48;100.00;99182.50;4980284;28;9689;-69
2023/10/27 10:03:27;;;;;;;;;1.75;1.75;;;;;11.51;100.00;99180.16;4989065;28;10431;-69
2023/10/27 10:06:07;;;;;;;;;3.00;1.50;;;;;11.51;99.79;99174.75;4980102;28;9598;-69
2023/10/27 10:08:33;;;;;;;;;2.00;2.00;;;;;11.50;99.83;99178.50;4963841;28;9632;-68
2023/10/27 10:11:13;;;;;;;;;1.75;1.75;;;;;11.50;99.78;99177.66;4968883;28;9669;-68
2023/10/27 10:13:40;;;;;;;;;0.75;0.75;;;;;11.49;100.00;99184.94;4968490;28;9712;-68
2023/10/27 10:16:08;;;;;;;;;3.50;3.25;;;;;11.52;99.70;99183.66;4953957;28;10235;-68
2023/10/27 10:18:39;;;;;;;;;3.00;1.75;;;;;11.48;99.42;99179.81;4950260;28;9777;-68
2023/10/27 10:21:06;;;;;;;;;2.00;2.00;;;;;11.48;99.84;99183.31;4989307;28;9692;-68
2023/10/27 10:23:42;;;;;;;;;0.25;0.25;;;;;11.43;99.36;99183.22;4969952;28;10516;-69
2023/10/27 10:26:08;;;;;;;;;1.00;1.00;;;;;11.46;99.75;99187.28;4967051;28;9761;-69
2023/10/27 10:28:36;;;;;;;;;1.75;1.75;;;;;11.46;99.74;99185.41;4954834;28;9694;-68
2023/10/27 10:31:16;;;;;;;;;0.75;0.00;;;;;11.50;99.72;99188.44;4966374;28;9582;-69
2023/10/27 10:33:45;;;;;;;;;1.00;1.00;;;;;11.50;99.84;99188.44;4958072;28;9583;-68
2023/10/27 10:36:18;;;;;;;;;1.00;1.00;;;;;11.51;99.64;99190.09;4975615;28;9652;-68
2023/10/27 10:38:56;;;;;;;;;1.00;1.00;;;;;11.51;99.63;99184.72;4976465;28;9638;-68
2023/10/27 10:41:40;;;;;;;;;1.00;1.00;;;;;11.49;99.33;99189.53;4963535;28;9455;-68
2023/10/27 10:44:15;;;;;;;;;1.00;1.00;;;;;11.51;99.44;99192.81;4970882;28;9487;-68
2023/10/27 10:46:46;;;;;;;;;0.50;0.50;;;;;11.50;99.49;99194.66;4968016;28;9668;-68
2023/10/27 10:49:27;;;;;;;;;2.00;2.00;;;;;11.52;99.55;99194.44;4979305;28;9393;-68
2023/10/27 10:51:57;;;;;;;;;2.00;2.00;;;;;11.51;99.45;99192.81;4985705;28;9516;-68
2023/10/27 10:54:31;;;;;;;;;0.75;0.75;;;;;11.50;99.58;99185.75;4971016;28;9540;-68
2023/10/27 10:57:03;;;;;;;;;1.00;1.00;;;;;11.52;99.89;99186.34;4973734;28;9607;-68
2023/10/27 10:59:31;;;;;;;;;0.75;0.75;;;;;11.55;100.00;99191.25;4968684;28;10315;-68
2023/10/27 11:01:58;;;;;;;;;0.00;0.00;;;;;11.55;99.86;99192.06;4969320;28;9624;-68
2023/10/27 11:04:29;;;;;;;;;1.50;1.50;;;;;11.53;99.57;99185.28;4967273;28;10282;-67
2023/10/27 11:07:07;;;;;;;;;0.50;0.00;;;;;11.50;99.62;99185.75;4969063;28;9737;-68
2023/10/27 11:09:34;;;;;;;;;1.00;0.25;;;;;11.52;100.00;99180.97;4977965;28;9361;-68
2023/10/27 11:12:02;;;;;;;;;0.75;0.75;;;;;11.50;99.90;99175.78;4987365;28;9532;-68
2023/10/27 11:14:38;;;;;;;;;1.00;1.00;;;;;11.56;99.78;99179.41;4986545;28;9519;-68
2023/10/27 11:17:05;;;;;;;;;0.00;0.00;;;;;11.56;99.93;99177.53;4998778;28;9587;-68
2023/10/27 11:19:33;;;;;;;;;0.00;0.00;;;;;11.58;99.68;99174.59;4988411;28;9458;-67
2023/10/27 11:22:00;;;;;;;;;0.25;0.25;;;;;11.61;99.75;99174.13;4992207;28;9555;-68
2023/10/27 11:24:26;;;;;;;;;0.25;0.25;;;;;11.62;99.84;99175.75;4989210;28;9680;-67